createdAt,value
2023-01-30T00:01:13.013Z,2.21
2023-01-30T00:03:40.504Z,2.28
2023-01-30T00:06:07.834Z,2.30
2023-01-30T00:08:35.406Z,2.30
2023-01-30T00:11:07.618Z,2.27
2023-01-30T00:13:35.300Z,2.31
2023-01-30T00:16:02.629Z,2.31
2023-01-30T00:18:30.430Z,2.34
2023-01-30T00:21:02.767Z,2.21
2023-01-30T00:23:31.844Z,2.25
2023-01-30T00:25:59.539Z,2.21
2023-01-30T00:28:27.350Z,2.21
2023-01-30T00:30:56.417Z,2.25
2023-01-30T00:33:25.792Z,2.21
2023-01-30T00:35:56.207Z,2.13
2023-01-30T00:38:24.656Z,2.30
2023-01-30T00:40:51.888Z,2.33
2023-01-30T00:43:39.671Z,2.24
2023-01-30T00:46:33.613Z,2.14
2023-01-30T00:49:01.178Z,2.16
2023-01-30T00:51:28.649Z,2.15
2023-01-30T00:53:56.181Z,2.06
2023-01-30T00:56:23.417Z,2.20
2023-01-30T00:58:50.956Z,2.06
2023-01-30T01:01:18.283Z,2.09
2023-01-30T01:03:45.932Z,2.16
2023-01-30T01:06:13.183Z,2.05
2023-01-30T01:08:40.695Z,2.05
2023-01-30T01:11:08.149Z,2.09
2023-01-30T01:13:35.710Z,1.99
2023-01-30T01:16:03.093Z,2.05
2023-01-30T01:18:31.916Z,2.05
2023-01-30T01:20:59.134Z,2.11
2023-01-30T01:23:27.962Z,2.04
2023-01-30T01:25:55.655Z,2.05
2023-01-30T01:28:23.145Z,2.02
2023-01-30T01:30:50.572Z,2.04
2023-01-30T01:33:18.191Z,2.05
2023-01-30T01:35:47.405Z,1.96
2023-01-30T01:38:16.767Z,1.97
2023-01-30T01:41:04.956Z,2.07
2023-01-30T01:43:35.458Z,1.87
2023-01-30T01:46:11.283Z,1.96
2023-01-30T01:48:43.686Z,2.06
2023-01-30T01:51:18.165Z,2.13
2023-01-30T01:54:04.197Z,1.99
2023-01-30T01:56:34.619Z,1.97
2023-01-30T01:59:08.189Z,1.86
2023-01-30T02:01:35.571Z,1.87
2023-01-30T02:04:09.038Z,1.74
2023-01-30T02:06:39.432Z,1.99
2023-01-30T02:09:10.353Z,2.01
2023-01-30T02:11:45.146Z,1.90
2023-01-30T02:14:14.889Z,1.92
2023-01-30T02:16:46.570Z,1.92
2023-01-30T02:19:34.760Z,1.97
2023-01-30T02:22:30.155Z,1.96
2023-01-30T02:25:33.927Z,1.91
2023-01-30T02:28:16.525Z,1.90
2023-01-30T02:30:56.385Z,1.91
2023-01-30T02:33:47.497Z,1.93
2023-01-30T02:36:33.643Z,1.92
2023-01-30T02:39:15.431Z,1.89
2023-01-30T02:42:12.129Z,1.89
2023-01-30T02:44:59.271Z,1.78
2023-01-30T02:47:53.920Z,1.98
2023-01-30T02:50:32.790Z,1.95
2023-01-30T02:53:00.891Z,2.00
2023-01-30T02:55:29.699Z,1.81
2023-01-30T02:57:58.012Z,2.00
2023-01-30T03:00:41.438Z,2.01
2023-01-30T03:03:50.352Z,1.96
2023-01-30T03:06:47.201Z,1.96
2023-01-30T03:09:48.652Z,1.89
2023-01-30T03:12:30.053Z,1.82
2023-01-30T03:15:08.638Z,1.83
2023-01-30T03:17:37.837Z,1.85
2023-01-30T03:20:06.069Z,1.51
2023-01-30T03:22:33.261Z,1.68
2023-01-30T03:25:01.118Z,1.78
2023-01-30T03:27:28.610Z,1.82
2023-01-30T03:29:56.177Z,1.77
2023-01-30T03:32:23.417Z,1.85
2023-01-30T03:34:51.482Z,1.80
2023-01-30T03:37:18.908Z,1.95
2023-01-30T03:39:46.601Z,1.92
2023-01-30T03:42:15.829Z,1.86
2023-01-30T03:44:43.575Z,1.86
2023-01-30T03:47:11.225Z,1.88
2023-01-30T03:49:38.938Z,1.92
2023-01-30T03:52:06.278Z,1.93
2023-01-30T03:54:33.824Z,1.87
2023-01-30T03:57:01.177Z,1.89
2023-01-30T03:59:29.542Z,1.76
2023-01-30T04:02:04.819Z,1.75
2023-01-30T04:04:32.943Z,1.76
2023-01-30T04:07:01.387Z,1.79
2023-01-30T04:09:29.543Z,1.68
2023-01-30T04:11:56.853Z,1.73
2023-01-30T04:14:25.252Z,1.70
2023-01-30T04:17:24.797Z,1.71
2023-01-30T04:20:15.805Z,1.73
2023-01-30T04:22:48.489Z,1.66
2023-01-30T04:25:17.245Z,1.66
2023-01-30T04:27:44.971Z,1.68
2023-01-30T04:30:22.547Z,1.73
2023-01-30T04:32:54.164Z,1.69
2023-01-30T04:35:22.071Z,1.67
2023-01-30T04:37:49.292Z,1.55
2023-01-30T04:40:20.469Z,1.59
2023-01-30T04:42:47.678Z,1.55
2023-01-30T04:45:45.583Z,1.56
2023-01-30T04:48:13.483Z,1.59
2023-01-30T04:50:42.882Z,1.63
2023-01-30T04:53:10.337Z,1.69
2023-01-30T04:55:37.941Z,1.62
2023-01-30T04:58:05.463Z,1.60
2023-01-30T05:00:33.052Z,1.69
2023-01-30T05:03:01.591Z,1.73
2023-01-30T05:05:29.217Z,1.69
2023-01-30T05:07:56.455Z,1.70
2023-01-30T05:10:24.065Z,1.75
2023-01-30T05:12:51.358Z,1.74
2023-01-30T05:15:19.311Z,1.73
2023-01-30T05:17:46.723Z,1.80
2023-01-30T05:20:14.657Z,1.78
2023-01-30T05:22:41.867Z,1.82
2023-01-30T05:25:09.817Z,1.82
2023-01-30T05:27:37.376Z,1.86
2023-01-30T05:30:05.455Z,1.82
2023-01-30T05:32:32.673Z,1.82
2023-01-30T05:35:00.227Z,1.81
2023-01-30T05:37:27.632Z,1.74
2023-01-30T05:39:55.259Z,1.74
2023-01-30T05:42:22.583Z,1.82
2023-01-30T05:44:50.067Z,1.80
2023-01-30T05:47:17.267Z,1.63
2023-01-30T05:49:44.784Z,1.67
2023-01-30T05:52:12.002Z,1.73
2023-01-30T05:54:39.672Z,1.71
2023-01-30T05:57:06.892Z,1.71
2023-01-30T05:59:34.431Z,1.62
2023-01-30T06:02:01.707Z,1.70
2023-01-30T06:04:29.315Z,1.65
2023-01-30T06:06:56.651Z,1.64
2023-01-30T06:09:24.366Z,1.65
2023-01-30T06:11:53.281Z,1.74
2023-01-30T06:14:20.962Z,1.79
2023-01-30T06:16:48.197Z,1.77
2023-01-30T06:19:15.748Z,1.76
2023-01-30T06:21:43.019Z,1.60
2023-01-30T06:24:10.637Z,1.65
2023-01-30T06:26:37.985Z,1.57
2023-01-30T06:29:05.540Z,1.60
2023-01-30T06:31:32.863Z,1.66
2023-01-30T06:34:00.412Z,1.71
2023-01-30T06:36:27.705Z,1.55
2023-01-30T06:38:55.351Z,1.64
2023-01-30T06:41:22.580Z,1.59
2023-01-30T06:43:50.277Z,1.61
2023-01-30T06:46:17.587Z,1.62
2023-01-30T06:48:45.569Z,1.61
2023-01-30T06:51:12.955Z,1.67
2023-01-30T06:53:40.508Z,1.64
2023-01-30T06:56:07.806Z,1.66
2023-01-30T06:58:35.384Z,1.62
2023-01-30T07:01:03.365Z,1.70
2023-01-30T07:03:31.101Z,1.79
2023-01-30T07:05:58.503Z,1.64
2023-01-30T07:08:26.321Z,1.68
2023-01-30T07:10:54.562Z,1.62
2023-01-30T07:13:22.352Z,1.76
2023-01-30T07:15:50.462Z,1.68
2023-01-30T07:18:18.310Z,1.73
2023-01-30T07:20:49.829Z,1.83
2023-01-30T07:23:18.105Z,1.84
2023-01-30T07:25:45.523Z,1.85
2023-01-30T07:28:13.169Z,1.87
2023-01-30T07:30:40.495Z,1.87
2023-01-30T07:33:08.117Z,1.90
2023-01-30T07:35:37.363Z,1.95
2023-01-30T07:38:05.906Z,1.86
2023-01-30T07:40:33.417Z,1.88
2023-01-30T07:43:07.213Z,1.91
2023-01-30T07:45:37.074Z,1.85
2023-01-30T07:48:05.556Z,2.04
2023-01-30T07:50:33.244Z,2.12
2023-01-30T07:53:03.654Z,2.02
2023-01-30T07:55:31.333Z,2.10
2023-01-30T07:57:59.354Z,2.00
2023-01-30T08:00:27.587Z,2.01
2023-01-30T08:02:55.253Z,2.14
2023-01-30T08:05:22.904Z,2.19
2023-01-30T08:07:50.470Z,2.15
2023-01-30T08:10:18.074Z,2.05
2023-01-30T08:12:45.803Z,2.21
2023-01-30T08:15:13.140Z,2.24
2023-01-30T08:17:40.724Z,2.35
2023-01-30T08:20:09.175Z,2.35
2023-01-30T08:22:36.916Z,2.35
2023-01-30T08:25:04.498Z,2.21
2023-01-30T08:27:32.017Z,2.51
2023-01-30T08:29:59.274Z,2.55
2023-01-30T08:32:26.819Z,2.49
2023-01-30T08:34:54.122Z,2.58
2023-01-30T08:37:21.702Z,2.56
2023-01-30T08:39:48.975Z,2.71
2023-01-30T08:42:16.504Z,2.64
2023-01-30T08:44:43.709Z,2.62
2023-01-30T08:47:11.329Z,2.59
2023-01-30T08:49:38.542Z,2.45
2023-01-30T08:52:06.034Z,2.42
2023-01-30T08:54:33.437Z,2.39
2023-01-30T08:57:01.171Z,2.51
2023-01-30T08:59:28.384Z,2.55
2023-01-30T09:01:55.890Z,2.63
2023-01-30T09:04:25.091Z,2.50
2023-01-30T09:06:52.936Z,2.57
2023-01-30T09:09:20.164Z,2.78
2023-01-30T09:11:48.334Z,2.85
2023-01-30T09:14:19.985Z,4.05
2023-01-30T09:16:49.703Z,4.41
2023-01-30T09:19:16.955Z,4.37
2023-01-30T09:21:44.463Z,4.53
2023-01-30T09:24:11.731Z,4.38
2023-01-30T09:26:40.535Z,4.58
2023-01-30T09:29:07.772Z,4.42
2023-01-30T09:31:35.373Z,4.59
2023-01-30T09:34:02.706Z,4.18
2023-01-30T09:36:30.328Z,4.27
2023-01-30T09:38:57.660Z,4.12
2023-01-30T09:41:52.553Z,4.65
2023-01-30T09:44:44.655Z,5.02
2023-01-30T09:47:14.072Z,4.50
2023-01-30T09:50:15.871Z,4.73
2023-01-30T09:52:56.976Z,4.40
2023-01-30T09:55:29.324Z,4.16
2023-01-30T09:57:59.486Z,4.01
2023-01-30T10:00:36.969Z,4.08
2023-01-30T10:03:21.481Z,5.01
2023-01-30T10:05:55.754Z,5.00
2023-01-30T10:08:48.322Z,6.77
2023-01-30T10:11:15.582Z,7.60
2023-01-30T10:14:15.837Z,7.18
2023-01-30T10:16:54.410Z,6.99
2023-01-30T10:19:40.477Z,7.84
2023-01-30T10:22:25.260Z,8.50
2023-01-30T10:25:33.437Z,8.07
2023-01-30T10:28:11.505Z,7.18
2023-01-30T10:30:39.582Z,7.23
2023-01-30T10:33:23.796Z,7.08
2023-01-30T10:36:08.324Z,6.24
2023-01-30T10:38:50.776Z,6.88
2023-01-30T10:41:26.870Z,7.12
2023-01-30T10:44:14.827Z,6.14
2023-01-30T10:47:13.337Z,5.93
2023-01-30T10:49:56.504Z,7.01
2023-01-30T10:52:45.302Z,7.53
2023-01-30T10:55:38.582Z,6.62
2023-01-30T10:58:11.898Z,6.00
2023-01-30T11:00:44.524Z,4.96
2023-01-30T11:03:39.801Z,4.37
2023-01-30T11:06:26.653Z,3.82
2023-01-30T11:08:55.645Z,5.23
2023-01-30T11:11:28.266Z,6.03
2023-01-30T11:14:11.190Z,7.44
2023-01-30T11:16:52.789Z,7.25
2023-01-30T11:19:24.298Z,8.38
2023-01-30T11:21:56.764Z,7.69
2023-01-30T11:24:30.803Z,8.26
2023-01-30T11:27:28.434Z,6.85
2023-01-30T11:30:14.739Z,5.51
2023-01-30T11:32:44.305Z,5.23
2023-01-30T11:35:14.844Z,4.74
2023-01-30T11:37:45.124Z,4.61
2023-01-30T11:40:37.695Z,4.56
2023-01-30T11:43:06.177Z,4.39
2023-01-30T11:45:41.263Z,4.39
2023-01-30T11:49:01.527Z,4.18
2023-01-30T11:51:10.754Z,4.17
2023-01-30T11:53:51.131Z,4.31
2023-01-30T11:56:25.133Z,4.59
2023-01-30T11:59:00.825Z,4.74
2023-01-30T12:01:35.736Z,4.82
2023-01-30T12:04:08.119Z,5.13
2023-01-30T12:06:39.052Z,4.87
2023-01-30T12:09:14.888Z,4.96
2023-01-30T12:11:45.259Z,4.72
2023-01-30T12:14:12.479Z,4.92
2023-01-30T12:16:54.250Z,5.10
2023-01-30T12:19:46.792Z,4.88
2023-01-30T12:22:30.220Z,5.04
2023-01-30T12:25:09.824Z,5.13
2023-01-30T12:28:01.912Z,4.62
2023-01-30T12:30:35.215Z,4.88
2023-01-30T12:33:06.066Z,5.01
2023-01-30T12:35:47.366Z,4.88
2023-01-30T12:38:58.208Z,4.64
2023-01-30T12:41:48.555Z,4.51
2023-01-30T12:44:25.064Z,4.33
2023-01-30T12:46:55.041Z,4.03
2023-01-30T12:49:31.230Z,4.06
2023-01-30T12:52:07.688Z,4.02
2023-01-30T12:54:35.204Z,4.04
2023-01-30T12:57:15.119Z,3.85
2023-01-30T13:00:00.661Z,3.90
2023-01-30T13:02:33.951Z,3.85
2023-01-30T13:05:22.685Z,3.79
2023-01-30T13:08:27.009Z,3.77
2023-01-30T13:11:00.745Z,3.62
2023-01-30T13:13:50.132Z,3.65
2023-01-30T13:16:32.805Z,3.59
2023-01-30T13:19:21.116Z,3.69
2023-01-30T13:21:57.902Z,3.73
2023-01-30T13:24:28.154Z,4.05
2023-01-30T13:27:00.619Z,4.10
2023-01-30T13:29:39.801Z,4.18
2023-01-30T13:32:31.688Z,3.86
2023-01-30T13:35:00.804Z,3.66
2023-01-30T13:37:30.066Z,3.48
2023-01-30T13:40:16.789Z,3.50
2023-01-30T13:42:50.740Z,3.46
2023-01-30T13:45:32.383Z,3.25
2023-01-30T13:48:18.634Z,3.20
2023-01-30T13:51:24.580Z,3.12
2023-01-30T13:54:03.395Z,3.01
2023-01-30T13:56:41.816Z,2.90
2023-01-30T13:59:47.781Z,2.69
2023-01-30T14:02:23.480Z,2.70
2023-01-30T14:05:03.987Z,2.66
2023-01-30T14:07:41.904Z,2.71
2023-01-30T14:10:09.389Z,2.66
2023-01-30T14:12:44.653Z,2.58
2023-01-30T14:15:15.247Z,2.23
2023-01-30T14:18:06.087Z,2.44
2023-01-30T14:20:41.244Z,2.35
2023-01-30T14:23:34.017Z,2.37
2023-01-30T14:26:02.093Z,2.46
2023-01-30T14:28:29.357Z,2.57
2023-01-30T14:30:59.232Z,2.49
2023-01-30T14:33:26.708Z,2.64
2023-01-30T14:36:00.372Z,2.65
2023-01-30T14:38:38.743Z,2.61
2023-01-30T14:41:07.141Z,2.67
2023-01-30T14:43:41.816Z,2.55
2023-01-30T14:46:32.361Z,2.67
2023-01-30T14:49:06.840Z,2.72
2023-01-30T14:51:43.634Z,2.83
2023-01-30T14:54:14.717Z,2.91
2023-01-30T14:56:42.375Z,2.62
2023-01-30T14:59:29.841Z,2.65
2023-01-30T15:01:59.984Z,2.69
2023-01-30T15:04:31.767Z,2.54
2023-01-30T15:07:04.439Z,2.73
2023-01-30T15:09:32.673Z,2.61
2023-01-30T15:12:30.865Z,2.68
2023-01-30T15:15:22.908Z,2.60
2023-01-30T15:17:58.235Z,2.55
2023-01-30T15:20:35.614Z,2.51
2023-01-30T15:23:43.798Z,2.35
2023-01-30T15:26:35.627Z,2.28
2023-01-30T15:29:24.843Z,2.01
2023-01-30T15:31:59.841Z,2.14
2023-01-30T15:34:30.398Z,2.08
2023-01-30T15:36:58.184Z,2.09
2023-01-30T15:39:29.514Z,2.24
2023-01-30T15:42:05.889Z,2.27
2023-01-30T15:44:49.812Z,2.33
2023-01-30T15:47:38.300Z,2.26
2023-01-30T15:50:09.932Z,2.25
2023-01-30T15:52:47.235Z,2.24
2023-01-30T15:55:25.913Z,2.04
2023-01-30T15:57:57.764Z,2.17
2023-01-30T16:00:29.386Z,2.14
2023-01-30T16:02:58.834Z,2.03
2023-01-30T16:05:27.072Z,2.22
2023-01-30T16:07:59.110Z,2.27
2023-01-30T16:10:30.146Z,2.34
2023-01-30T16:13:02.255Z,2.47
2023-01-30T16:15:39.739Z,2.06
2023-01-30T16:18:33.129Z,1.99
2023-01-30T16:21:04.703Z,1.96
2023-01-30T16:23:37.421Z,1.76
2023-01-30T16:26:09.771Z,1.80
2023-01-30T16:28:37.190Z,1.75
2023-01-30T16:31:07.709Z,1.63
2023-01-30T16:33:38.404Z,1.76
2023-01-30T16:36:27.899Z,1.66
2023-01-30T16:38:55.996Z,1.62
2023-01-30T16:41:34.010Z,1.63
2023-01-30T16:44:20.010Z,1.50
2023-01-30T16:46:57.345Z,1.49
2023-01-30T16:49:36.673Z,1.52
2023-01-30T16:52:18.883Z,1.64
2023-01-30T16:54:58.783Z,1.76
2023-01-30T16:58:05.314Z,1.69
2023-01-30T17:00:40.151Z,1.67
2023-01-30T17:03:21.890Z,1.55
2023-01-30T17:05:49.798Z,1.59
2023-01-30T17:08:54.034Z,1.51
2023-01-30T17:11:40.970Z,1.55
2023-01-30T17:14:14.708Z,1.42
2023-01-30T17:16:43.247Z,1.44
2023-01-30T17:19:10.813Z,1.45
2023-01-30T17:21:45.446Z,1.62
2023-01-30T17:24:23.716Z,1.59
2023-01-30T17:26:59.040Z,1.62
2023-01-30T17:29:43.688Z,1.58
2023-01-30T17:32:16.096Z,1.64
2023-01-30T17:34:43.742Z,1.62
2023-01-30T17:37:20.213Z,1.68
2023-01-30T17:39:48.016Z,1.66
2023-01-30T17:42:22.140Z,1.51
2023-01-30T17:44:50.116Z,1.59
2023-01-30T17:47:17.360Z,1.57
2023-01-30T17:49:44.905Z,1.54
2023-01-30T17:52:13.730Z,1.57
2023-01-30T17:54:41.312Z,1.62
2023-01-30T17:57:12.937Z,1.77
2023-01-30T17:59:40.392Z,1.73
2023-01-30T18:02:10.359Z,1.70
2023-01-30T18:04:40.072Z,1.69
2023-01-30T18:07:11.929Z,1.75
2023-01-30T18:09:39.455Z,1.78
2023-01-30T18:12:06.819Z,2.01
2023-01-30T18:14:34.388Z,1.85
2023-01-30T18:17:01.944Z,1.97
2023-01-30T18:19:31.578Z,1.90
2023-01-30T18:21:58.962Z,2.07
2023-01-30T18:24:26.648Z,2.03
2023-01-30T18:26:53.943Z,2.07
2023-01-30T18:29:21.599Z,2.08
2023-01-30T18:31:48.929Z,2.06
2023-01-30T18:34:16.647Z,2.10
2023-01-30T18:36:43.897Z,2.09
2023-01-30T18:39:12.390Z,2.18
2023-01-30T18:41:39.632Z,2.16
2023-01-30T18:44:07.197Z,2.33
2023-01-30T18:46:34.644Z,2.46
2023-01-30T18:49:02.300Z,2.55
2023-01-30T18:51:33.836Z,2.63
2023-01-30T18:54:02.459Z,2.84
2023-01-30T18:56:32.077Z,2.77
2023-01-30T18:59:03.998Z,2.82
2023-01-30T19:01:35.598Z,2.95
2023-01-30T19:04:05.869Z,2.89
2023-01-30T19:06:35.945Z,3.20
2023-01-30T19:09:04.435Z,3.12
2023-01-30T19:11:50.531Z,3.25
2023-01-30T19:14:18.058Z,3.19
2023-01-30T19:16:45.382Z,3.29
2023-01-30T19:19:13.252Z,3.15
2023-01-30T19:21:40.780Z,3.09
2023-01-30T19:24:13.727Z,3.13
2023-01-30T19:26:41.067Z,3.04
2023-01-30T19:29:09.565Z,3.04
2023-01-30T19:31:37.302Z,3.08
2023-01-30T19:34:06.459Z,3.15
2023-01-30T19:36:36.032Z,3.31
2023-01-30T19:39:06.172Z,3.34
2023-01-30T19:41:35.581Z,3.33
2023-01-30T19:44:05.268Z,3.21
2023-01-30T19:46:33.143Z,3.26
2023-01-30T19:49:00.824Z,3.47
2023-01-30T19:51:30.583Z,3.35
2023-01-30T19:54:00.941Z,3.33
2023-01-30T19:56:29.639Z,3.44
2023-01-30T19:58:59.544Z,3.43
2023-01-30T20:01:29.884Z,3.60
2023-01-30T20:03:58.989Z,3.60
2023-01-30T20:06:29.404Z,3.66
2023-01-30T20:09:02.726Z,3.69
2023-01-30T20:11:30.378Z,3.50
2023-01-30T20:13:59.112Z,3.47
2023-01-30T20:16:27.786Z,3.33
2023-01-30T20:19:00.794Z,3.34
2023-01-30T20:21:29.719Z,3.46
2023-01-30T20:23:58.416Z,3.23
2023-01-30T20:26:29.157Z,3.27
2023-01-30T20:28:57.550Z,3.01
2023-01-30T20:31:27.207Z,3.16
2023-01-30T20:33:57.651Z,3.32
2023-01-30T20:36:27.218Z,3.09
2023-01-30T20:38:55.731Z,3.02
2023-01-30T20:41:26.186Z,2.92
2023-01-30T20:43:59.502Z,3.18
2023-01-30T20:46:34.660Z,3.02
2023-01-30T20:49:02.251Z,3.04
2023-01-30T20:51:31.915Z,3.16
2023-01-30T20:54:01.900Z,2.97
2023-01-30T20:56:34.965Z,2.89
2023-01-30T20:59:04.714Z,2.85
2023-01-30T21:01:32.555Z,2.76
2023-01-30T21:04:04.148Z,2.72
2023-01-30T21:06:41.309Z,2.70
2023-01-30T21:09:19.269Z,2.74
2023-01-30T21:11:47.427Z,2.60
2023-01-30T21:14:15.791Z,2.67
2023-01-30T21:16:43.936Z,2.79
2023-01-30T21:19:15.229Z,2.73
2023-01-30T21:21:52.745Z,2.63
2023-01-30T21:24:23.939Z,2.74
2023-01-30T21:26:51.987Z,2.78
2023-01-30T21:29:22.539Z,2.73
2023-01-30T21:31:50.417Z,2.79
2023-01-30T21:34:18.211Z,2.86
2023-01-30T21:37:05.432Z,2.65
2023-01-30T21:39:51.518Z,2.52
2023-01-30T21:42:37.171Z,2.57
2023-01-30T21:45:06.864Z,2.67
2023-01-30T21:47:34.236Z,2.86
2023-01-30T21:50:01.761Z,2.75
2023-01-30T21:52:32.612Z,2.64
2023-01-30T21:55:00.218Z,2.49
2023-01-30T21:57:27.503Z,2.52
2023-01-30T21:59:55.550Z,2.55
2023-01-30T22:02:22.925Z,2.40
2023-01-30T22:04:50.611Z,2.39
2023-01-30T22:07:17.916Z,2.40
2023-01-30T22:09:45.470Z,2.53
2023-01-30T22:12:12.686Z,2.34
2023-01-30T22:14:40.329Z,2.53
2023-01-30T22:17:07.609Z,2.39
2023-01-30T22:19:38.588Z,2.37
2023-01-30T22:22:05.908Z,2.33
2023-01-30T22:24:33.489Z,2.25
2023-01-30T22:27:00.792Z,2.19
2023-01-30T22:29:29.246Z,2.04
2023-01-30T22:31:56.678Z,2.09
2023-01-30T22:34:24.322Z,2.03
2023-01-30T22:36:51.899Z,2.08
2023-01-30T22:39:19.429Z,2.04
2023-01-30T22:41:46.722Z,2.03
2023-01-30T22:44:14.261Z,2.07
2023-01-30T22:46:41.601Z,2.10
2023-01-30T22:49:09.656Z,2.16
2023-01-30T22:51:39.948Z,1.98
2023-01-30T22:54:11.116Z,1.87
2023-01-30T22:56:41.737Z,2.00
2023-01-30T22:59:10.271Z,2.13
2023-01-30T23:01:40.049Z,2.03
2023-01-30T23:04:16.637Z,1.93
2023-01-30T23:06:44.750Z,1.95
2023-01-30T23:09:16.331Z,2.14
2023-01-30T23:12:09.221Z,1.92
2023-01-30T23:14:38.252Z,2.08
2023-01-30T23:17:26.813Z,1.96
2023-01-30T23:19:55.169Z,1.81
2023-01-30T23:22:22.924Z,1.79
2023-01-30T23:24:51.507Z,1.76
2023-01-30T23:27:19.550Z,1.69
2023-01-30T23:29:47.167Z,1.68
2023-01-30T23:32:15.152Z,1.65
2023-01-30T23:34:42.742Z,1.63
2023-01-30T23:37:10.008Z,1.71
2023-01-30T23:39:37.675Z,1.65
2023-01-30T23:42:04.900Z,1.60
2023-01-30T23:44:32.468Z,1.64
2023-01-30T23:46:59.775Z,1.83
2023-01-30T23:49:27.346Z,1.80
2023-01-30T23:51:54.559Z,1.81
2023-01-30T23:54:22.133Z,1.85
2023-01-30T23:56:49.347Z,1.69
2023-01-30T23:59:16.854Z,1.89
